Terminal Aerodrome Forecast
Issued by NWS

Home | Current Version | Previous Version | Text Only | Print | Product List | Glossary On
Versions: 1 2 3 4 5 6 7 8 9 10 11 12 13 14 15 16 17 18 19 20 21 22 23 24 25 26 27 28 29 30
000
FTUS46 KPQR 182340
TAFUAO
TAF
KUAO 182340Z 1900/1924 VRB04KT P6SM SCT120
     FM190200 26005KT P6SM SCT060 BKN120
     FM190700 VRB03KT P6SM BKN050 OVC100
     FM191000 19003KT P6SM VCSH SCT025 OVC050
     FM191300 19004KT P6SM -RA BKN025 OVC050
     FM191600 20004KT 6SM -RA BR SCT008 BKN012 OVC025
     FM192200 30006KT P6SM -SHRA SCT015 BKN025 OVC040=

USA.gov is the U.S. government's official web portal to all federal, state and local government web resources and services.